Tuesday, July 22, 2014, 9:54 PM EDT
Back to Local

KMTP, Montauk Airport

Location: Montauk, NY, United States Lat: 41.067
Local Time: 9:54 PM EDT ( 1:54 GMT) Lon: -71.917
Time Zone: US/Eastern Elev: 6 ft

Show me the last for .
Show Coded

Time T Td Feel RH Dir Speed Gust Alt SLP Vis Weather Sky Remarks
2014-07-22 20:54 73 63 77 70 220° 9 - 30.09 30.09 0 None
2014-07-22 19:54 73 65 77 75 220° 8 - 30.10 30.10 0 6-hr Min Temp (8pm): 73.0°F
6-hr Max Temp (8pm): 82.9°F
2014-07-22 18:54 75 66 78 73 220° 7 - 30.09 30.09 0 None
2014-07-22 17:54 77 67 80 71 210° 8 - 30.10 30.10 0 None
2014-07-22 16:54 77 67 80 71 200° 8 - 30.10 30.10 0 None
2014-07-22 15:54 77 67 80 71 210° 8 - 30.11 30.11 0 None
2014-07-22 13:54 82 68 85 62 220° 5 - 30.14 30.14 0 6-hr Min Temp (2pm): 72.0°F
6-hr Max Temp (2pm): 82.9°F
2014-07-22 12:54 81 68 84 64 Variable 3 - 30.15 30.15 0 None
2014-07-22 11:54 81 66 84 60 Variable 3 - 30.15 30.15 0 None
2014-07-22 10:54 78 65 81 64 270° 6 - 30.16 30.16 0 None
2014-07-22 09:54 76 63 79 64 260° 7 - 30.16 30.16 0 None
2014-07-22 08:54 75 63 78 66 250° 5 - 30.17 30.17 0 None
2014-07-22 07:54 72 65 76 78 230° 5 - 30.18 30.18 0 6-hr Min Temp (8am): 64.0°F
6-hr Max Temp (8am): 72.0°F
2014-07-22 05:54 67 65 - 93 - Calm - 30.18 30.18 0 None
2014-07-22 04:54 66 64 - 93 - Calm - 30.17 30.17 0 None
2014-07-22 03:54 67 65 - 93 240° 3 - 30.18 30.18 0 None
2014-07-22 02:54 67 64 - 90 - Calm - 30.18 30.17 0 None
2014-07-22 01:54 67 64 - 90 - Calm - 30.18 30.17 0 6-hr Min Temp (2am): 66.0°F
6-hr Max Temp (2am): 70.0°F
2014-07-22 00:54 67 64 - 90 - Calm - 30.18 30.18 0 24-hr Min Temp (1am): 64.0°F
24-hr Max Temp (1am): 77.0°F
2014-07-21 23:54 67 64 - 90 - Calm - 30.19 30.19 0 None

Support USWX by starting your Amazon purchase here.